Aviation Digital Data Service (ADDS)

Output produced by METARs form (1442 UTC 20 September 2017)
found at http://www.aviationweather.gov/adds/metars/
 
YPAD 201430Z 03014KT CAVOK 19/M07 Q1009 NOSIG
TAF YPAD 201118Z 2012/2118 02012KT CAVOK 
     FM201900 30006KT CAVOK 
     FM202300 24008KT 9999 SCT010 
     FM210200 24010KT CAVOK 
     FM210900 15006KT CAVOK
       
YABA 201400Z AUTO 35008KT 9999 // NCD 13/11 Q1007
YMAY 201400Z AUTO 00000KT 9999 // NCD 05/04 Q1018
YBAS 201430Z AUTO 32005KT 9999 // NCD 19/M05 Q1015 RF00.0/000.0
TAF YBAS 201111Z 2012/2112 33006KT CAVOK 
     FM202300 32014KT CAVOK 
     FM210600 26006KT CAVOK
       
YAMB 201430Z AUTO 00000KT 9999 // OVC043 15/12 Q1018
TAF YAMB 201020Z 2012/2106 11006KT 9999 BKN035 
     FM201400 VRB03KT 9999 BKN030 
     FM202300 05007KT 9999 SCT045
       
YARG 201400Z AUTO 09004KT 9999 // SCT092 25/08 Q1013
YMAV 201430Z AUTO 03010KT 9999 // NCD 10/07 Q1013 RF00.0/000.0
TAF AMD YMAV 201113Z 2012/2112 01008KT CAVOK 
     BECMG 2021/2023 36018G30KT 9999 -SHRA NSC 
     BECMG 2103/2105 31012KT 9999 -SHRA NSC 
     FM210900 23008KT 9999 -SHRA FEW012 BKN025
       
YAYE 201400Z AUTO 31006KT 9999 // NCD 19/M03 Q1014
YLEC 201400Z AUTO 33005KT //// // ////// 15/M06 Q1015
YLHI 201430Z AUTO 26012KT 9999 // SCT030 OVC055 16/16 Q1016
TAF AMD YLHI 201123Z 2012/2112 21010KT 9999 SCT035 
     BECMG 2012/2014 24010KT 9999 -SHRA SCT025 BKN035 
     FM210000 23012KT 9999 SCT020 BKN030 INTER 2012/2100 5000 SHRA BKN010
       
YLIS 201400Z AUTO 00000KT 9999 // OVC039 OVC054 16/12 Q1018
YLRE 201400Z AUTO 14008KT 9999 // NCD 22/M06 Q1015
YBNA 201400Z AUTO 27002KT 9999 // BKN045 OVC051 16/14 Q1018
YBWX 201400Z AUTO 28011KT //// // ////// 23/20 Q1013
YBDV 201400Z AUTO 00000KT //// // ////// 17/M12 Q1015
YBAS 201430Z AUTO 32005KT 9999 // NCD 19/M05 Q1015 RF00.0/000.0
TAF YBAS 201111Z 2012/2112 33006KT CAVOK 
     FM202300 32014KT CAVOK 
     FM210600 26006KT CAVOK
       
YBBN 201430Z 09004KT CAVOK 19/14 Q1018 NOSIG
TAF YBBN 201123Z 2012/2118 11006KT 9999 BKN035 
     FM201700 19005KT 9999 BKN030 
     FM210000 03014KT 9999 SCT035 
     FM210900 03007KT 9999 SCT025 SCT040 
     FM211400 34010KT 9999 SCT020 SCT040
       
YBCG 201430Z AUTO 24002KT 9999 // SCT031 SCT054 17/13 Q1018
TAF YBCG 201122Z 2012/2112 11008KT 9999 BKN035 
     FM201400 20007KT 9999 BKN030 
     FM202300 01014KT 9999 SCT035
       
YBCS 201430Z 12004KT 9999 FEW025 21/19 Q1016 NOSIG
TAF YBCS 201200Z 2012/2112 16007KT 9999 FEW025 
     FM210100 08010KT 9999 FEW030 
     FM210800 16007KT 9999 FEW025
       
YBCV 201400Z AUTO 15004KT 9999 // NCD 13/M09 Q1016
YBDV 201400Z AUTO 00000KT //// // ////// 17/M12 Q1015
YBHI 201400Z AUTO 03007KT 9999 // NCD 12/M05 Q1015
YBHM 201430Z AUTO 36002KT 9999 // NCD 21/19 Q1016
TAF YBHM 201017Z 2012/2024 08010KT 9999 FEW025 
     FM201400 05008KT 9999 SCT022
       
YBMA 201430Z AUTO 15007KT 9999 // NCD 21/M04 Q1015
TAF YBMA 201017Z 2012/2024 17005KT CAVOK 
     FM202200 12008KT CAVOK
       
YBMK 201400Z AUTO 25003KT 9999 // NCD 16/15 Q1016
YBNA 201400Z AUTO 27002KT 9999 // BKN045 OVC051 16/14 Q1018
YBOK 201400Z AUTO 07007KT 9999 // NCD 14/11 Q1019
YBPN 201400Z AUTO 21004KT 9999 // NCD 17/16 Q1017
YBRK 201430Z AUTO 00000KT 9999 // NCD 18/16 Q1016 RF00.0/000.0
TAF YBRK 201121Z 2012/2112 VRB04KT 9999 SCT020 
     FM210000 05010KT 9999 FEW040
       
YBRM 201435Z AUTO 00000KT 8000 // NCD 19/18 Q1012 RF00/0/000/0
TAF YBRM 201056Z 2012/2112 VRB03KT CAVOK 
     FM210200 27010KT CAVOK
       
YBTL 201430Z AUTO 00000KT 9999 // NCD 20/19 Q1016
TAF YBTL 201107Z 2012/2112 06007KT 9999 SCT016 
     FM201400 VRB05KT 9999 SCT012 
     FM210000 06015KT 9999 FEW035 
     FM210800 07008KT 9999 FEW030 
     TEMPO 2012/2021 9999 NSW BKN012
       
YBUD 201400Z AUTO 15007KT 9999 // SCT019 BKN023 OVC035 21/17 Q1017
YBWP 201400Z AUTO 11007KT 9999 // NCD 24/18 Q1012
YBWX 201400Z AUTO 28011KT //// // ////// 23/20 Q1013
YBBN 201430Z 09004KT CAVOK 19/14 Q1018 NOSIG
TAF YBBN 201123Z 2012/2118 11006KT 9999 BKN035 
     FM201700 19005KT 9999 BKN030 
     FM210000 03014KT 9999 SCT035 
     FM210900 03007KT 9999 SCT025 SCT040 
     FM211400 34010KT 9999 SCT020 SCT040
       
YBHI 201400Z AUTO 03007KT 9999 // NCD 12/M05 Q1015
YBRM 201435Z AUTO 00000KT 8000 // NCD 19/18 Q1012 RF00/0/000/0
TAF YBRM 201056Z 2012/2112 VRB03KT CAVOK 
     FM210200 27010KT CAVOK
       
YBUD 201400Z AUTO 15007KT 9999 // SCT019 BKN023 OVC035 21/17 Q1017
YBCS 201430Z 12004KT 9999 FEW025 21/19 Q1016 NOSIG
TAF YBCS 201200Z 2012/2112 16007KT 9999 FEW025 
     FM210100 08010KT 9999 FEW030 
     FM210800 16007KT 9999 FEW025
       
YSCB 201430Z AUTO 17004KT 9999 // NCD 02/01 Q1018
TAF YSCB 201123Z 2012/2112 VRB03KT CAVOK 
     FM202300 33010KT CAVOK 
     FM211000 36005KT CAVOK 
     PROB30 2018/2021 4000 BR
       
YCAR 201400Z AUTO 20013KT 9999 // ////// 21/18 Q1015
YCAS 201400Z AUTO 00000KT //// // ////// 14/11 Q1019
YCDU 201400Z AUTO 23005KT 200V260 9999 // SCT125 16/13 Q1011
YCAR 201400Z AUTO 20013KT 9999 // ////// 21/18 Q1015
YCAS 201400Z AUTO 00000KT //// // ////// 14/11 Q1019
YCBA 201400Z AUTO 07004KT 9999 // NCD 08/M05 Q1017
YCBB 201400Z AUTO 21006KT //// // ////// 12/M04 Q1018
YCBP 201400Z AUTO 03013KT 9999 // NCD 19/M07 Q1012
YCCY 201400Z AUTO 17005KT //// // ////// 23/00 Q1014
YCDU 201400Z AUTO 23005KT 200V260 9999 // SCT125 16/13 Q1011
YCFS 201430Z AUTO 31006KT 9999 // BKN053 16/11 Q1018 RF00.0/000.0
TAF YCFS 201123Z 2012/2112 VRB03KT 9999 BKN040 
     FM202200 35012KT CAVOK 
     FM210200 02015KT CAVOK 
     FM211000 36010KT CAVOK
       
YCIN 201430Z AUTO 21007KT 9999 // NCD 24/02 Q1011 RF00.0/000.0
TAF YCIN 201242Z 2014/2102 VRB04KT CAVOK 
     FM210100 35008KT CAVOK
       
YCNM 201400Z AUTO 12007KT //// // ////// 10/M05 Q1017
YCOM 201400Z AUTO 01004KT 9999 // NCD 01/M02 Q1017
YBCV 201400Z AUTO 15004KT 9999 // NCD 13/M09 Q1016
YCCY 201400Z AUTO 17005KT //// // ////// 23/00 Q1014
YCBA 201400Z AUTO 07004KT 9999 // NCD 08/M05 Q1017
YCBP 201400Z AUTO 03013KT 9999 // NCD 19/M07 Q1012
YBCG 201430Z AUTO 24002KT 9999 // SCT031 SCT054 17/13 Q1018
TAF YBCG 201122Z 2012/2112 11008KT 9999 BKN035 
     FM201400 20007KT 9999 BKN030 
     FM202300 01014KT 9999 SCT035
       
YCOM 201400Z AUTO 01004KT 9999 // NCD 01/M02 Q1017
YCBB 201400Z AUTO 21006KT //// // ////// 12/M04 Q1018
YCNM 201400Z AUTO 12007KT //// // ////// 10/M05 Q1017
YCIN 201430Z AUTO 21007KT 9999 // NCD 24/02 Q1011 RF00.0/000.0
TAF YCIN 201242Z 2014/2102 VRB04KT CAVOK 
     FM210100 35008KT CAVOK
       
YPDN 201430Z 19003KT CAVOK 27/24 Q1012
TAF AMD YPDN 201133Z 2012/2118 01004KT 9999 SCT025 
     FM210200 34012KT CAVOK INTER 2015/2019 5000 SHRA SCT010 BKN020
       
YDBY 201400Z AUTO 00000KT 9999 // NCD 21/09 Q1011
YSDU 201430Z AUTO 13003KT 9999 // NCD 06/00 Q1018 RF00.0/000.0
TAF YSDU 201056Z 2012/2106 VRB03KT CAVOK 
     FM210000 32010KT CAVOK
       
YEML 201400Z AUTO 06006KT 9999 // NCD 20/05 Q1014
YESP 201400Z AUTO 02008KT 9999 // SCT120 12/09 Q1011
YFRT 201430Z AUTO 13006KT //// // ////// 13/09 Q1012
TAF AMD YFRT 201212Z 2014/2102 12007KT CAVOK 
     FM201700 VRB05KT CAVOK 
     FM202300 02007KT CAVOK 
     PROB30 2017/2023 0300 FG
       
YGEL 201430Z AUTO 02006KT 9999 // NCD 16/15 Q1015 RF00.0/000.0
TAF YGEL 201046Z 2012/2106 VRB03KT 9999 SCT015 
     FM201500 VRB03KT 9999 BKN010 
     FM202200 34010KT 9999 BKN015 
     FM210100 31018KT 9999 -SHRA BKN020 INTER 2103/2106 5000 SHRA BKN015 
     PROB30 2015/2022 0300 FG
       
YGLA 201430Z AUTO 17001KT 9999 // NCD 18/16 Q1016 RF00.0/000.0
TAF YGLA 201020Z 2012/2024 21006KT 9999 SCT020
       
YPGV 201430Z AUTO 16005KT 9999 // NCD 25/23 Q1012
TAF YPGV 201216Z 2014/2102 12008KT 9999 SCT015 
     FM202300 10013KT 9999 FEW020
       
YGFN 201400Z AUTO 00000KT 9999 // NCD 12/09 Q1019
YGTH 201400Z AUTO 00000KT 9999 // NCD 08/00 Q1017
YGTE 201400Z AUTO 07003KT 9999 // NCD 24/22 Q1012
YBHM 201430Z AUTO 36002KT 9999 // NCD 21/19 Q1016
TAF YBHM 201017Z 2012/2024 08010KT 9999 FEW025 
     FM201400 05008KT 9999 SCT022
       
YMHB 201430Z 36010KT CAVOK 12/07 Q1011 BKN130
TAF YMHB 201110Z 2012/2112 01006KT 9999 -SHRA NSC 
     FM210000 35016KT 9999 -SHRA NSC 
     FM210500 28014KT 9999 SCT050
       
YHID 201430Z AUTO 13012KT 9999 // SCT020 SCT024 25/22 Q1011
TAF YHID 201202Z 2012/2112 13014KT 9999 SCT018 BKN050 
     FM210000 13017G27KT 9999 SCT020 
     FM210900 13014KT 9999 SCT018 BKN045
       
YHUG 201400Z AUTO 07006KT 9999 // NCD 21/M01 Q1015
YPKG 201430Z AUTO 26006KT 9999 // NCD 17/07 Q1013
TAF YPKG 201055Z 2012/2112 26010KT CAVOK 
     FM201500 VRB03KT CAVOK 
     FM210000 34014KT CAVOK 
     FM210500 30017KT CAVOK
       
YKRY 201400Z AUTO 13003KT 9999 // NCD 15/12 Q1019
YKRY 201400Z AUTO 13003KT 9999 // NCD 15/12 Q1019
YPKU 201430Z AUTO 00000KT 9999 // NCD 23/15 Q1011 RF00.0/000.0
TAF YPKU 201242Z 2014/2102 VRB03KT CAVOK 
     FM202300 08007KT CAVOK
       
YMLT 201430Z AUTO 03008KT 9999 // BKN008 OVC092 OVC115 09/07 Q1013
TAF YMLT 201111Z 2012/2112 35010KT 9999 -SHRA FEW008 BKN012 
     FM202200 34012KT 9999 -SHRA SCT015 BKN025 
     FM210000 33018KT 9999 -SHRA SCT030
       
YPLM 201430Z AUTO 21007KT 9999 // NCD 19/16 Q1014
TAF YPLM 201055Z 2012/2112 21012KT CAVOK 
     FM202200 18006KT 9999 SCT008 
     FM210000 15006KT CAVOK 
     FM210500 23012KT CAVOK
       
YLEC 201400Z AUTO 33005KT //// // ////// 15/M06 Q1015
YLIS 201400Z AUTO 00000KT 9999 // OVC039 OVC054 16/12 Q1018
YLEC 201400Z AUTO 33005KT //// // ////// 15/M06 Q1015
YLHI 201430Z AUTO 26012KT 9999 // SCT030 OVC055 16/16 Q1016
TAF AMD YLHI 201123Z 2012/2112 21010KT 9999 SCT035 
     BECMG 2012/2014 24010KT 9999 -SHRA SCT025 BKN035 
     FM210000 23012KT 9999 SCT020 BKN030 INTER 2012/2100 5000 SHRA BKN010
       
YLIS 201400Z AUTO 00000KT 9999 // OVC039 OVC054 16/12 Q1018
YLRE 201400Z AUTO 14008KT 9999 // NCD 22/M06 Q1015
YLRE 201400Z AUTO 14008KT 9999 // NCD 22/M06 Q1015
YBMK 201400Z AUTO 25003KT 9999 // NCD 16/15 Q1016
YMAV 201430Z AUTO 03010KT 9999 // NCD 10/07 Q1013 RF00.0/000.0
TAF AMD YMAV 201113Z 2012/2112 01008KT CAVOK 
     BECMG 2021/2023 36018G30KT 9999 -SHRA NSC 
     BECMG 2103/2105 31012KT 9999 -SHRA NSC 
     FM210900 23008KT 9999 -SHRA FEW012 BKN025
       
YMAY 201400Z AUTO 00000KT 9999 // NCD 05/04 Q1018
YMDG 201400Z AUTO 00000KT 9999 // NCD 04/M02 Q1018
YMEK 201400Z AUTO 23004KT 9999 // NCD 19/04 Q1016
YMEN 201400Z AUTO 04005KT 9999 // NCD 11/05 Q1014
YMER 201400Z AUTO 21004KT 9999 // NCD 05/04 Q1017
YMHB 201430Z 36010KT CAVOK 12/07 Q1011 BKN130
TAF YMHB 201110Z 2012/2112 01006KT 9999 -SHRA NSC 
     FM210000 35016KT 9999 -SHRA NSC 
     FM210500 28014KT 9999 SCT050
       
YMIA 201400Z AUTO 03008KT 9999 // NCD 11/02 Q1014
YMLT 201430Z AUTO 03008KT 9999 // BKN008 OVC092 OVC115 09/07 Q1013
TAF YMLT 201111Z 2012/2112 35010KT 9999 -SHRA FEW008 BKN012 
     FM202200 34012KT 9999 -SHRA SCT015 BKN025 
     FM210000 33018KT 9999 -SHRA SCT030
       
YMML 201430Z 01019G29KT CAVOK 12/05 Q1014 FM1430 MOD TURB BLW 5000FT
TAF AMD YMML 201112Z 2012/2118 36020G32KT CAVOK 
     FM202100 36025G40KT 9999 -SHRA NSC 
     BECMG 2103/2105 33014KT 9999 -SHRA NSC 
     FM210900 19010KT 9999 FEW012 BKN025 
     FM211400 12005KT 9999 FEW010 BKN020 INTER 2106/2110 5000 SHRA SCT050 INTER 2110/2114 6000 -SHRA BKN010
       
YMOR 201400Z AUTO 16003KT 9999 // NCD 09/M06 Q1017
YMTG 201400Z AUTO 36009KT 9999 // NCD 13/06 Q1009
YMEK 201400Z AUTO 23004KT 9999 // NCD 19/04 Q1016
YMEN 201400Z AUTO 04005KT 9999 // NCD 11/05 Q1014
YMML 201430Z 01019G29KT CAVOK 12/05 Q1014 FM1430 MOD TURB BLW 5000FT
TAF AMD YMML 201112Z 2012/2118 36020G32KT CAVOK 
     FM202100 36025G40KT 9999 -SHRA NSC 
     BECMG 2103/2105 33014KT 9999 -SHRA NSC 
     FM210900 19010KT 9999 FEW012 BKN025 
     FM211400 12005KT 9999 FEW010 BKN020 INTER 2106/2110 5000 SHRA SCT050 INTER 2110/2114 6000 -SHRA BKN010
       
YMER 201400Z AUTO 21004KT 9999 // NCD 05/04 Q1017
YMIA 201400Z AUTO 03008KT 9999 // NCD 11/02 Q1014
YMOR 201400Z AUTO 16003KT 9999 // NCD 09/M06 Q1017
YMTG 201400Z AUTO 36009KT 9999 // NCD 13/06 Q1009
YBMA 201430Z AUTO 15007KT 9999 // NCD 21/M04 Q1015
TAF YBMA 201017Z 2012/2024 17005KT CAVOK 
     FM202200 12008KT CAVOK
       
YMDG 201400Z AUTO 00000KT 9999 // NCD 04/M02 Q1018
YNBR 201400Z AUTO 09008KT 9999 // NCD 11/M06 Q1017
YNAR 201400Z AUTO 14004KT //// // ////// 06/01 Q1017
YNWN 201400Z AUTO 00000KT 9999 // NCD 21/M03 Q1015
YNTN 201400Z AUTO 25004KT 9999 // NCD 23/17 Q1012
YSNW 201400Z AUTO 30005KT 9999 // NCD 08/08 Q1017
YBOK 201400Z AUTO 07007KT 9999 // NCD 14/11 Q1019
YOLD 201400Z AUTO 03009KT 9999 // NCD 18/M09 Q1012
YPAD 201430Z 03014KT CAVOK 19/M07 Q1009 NOSIG
TAF YPAD 201118Z 2012/2118 02012KT CAVOK 
     FM201900 30006KT CAVOK 
     FM202300 24008KT 9999 SCT010 
     FM210200 24010KT CAVOK 
     FM210900 15006KT CAVOK
       
YPBO 201400Z AUTO 26002KT 9999 // NCD 26/00 Q1015
YPCC 201430Z AUTO 12011KT 9999 // SCT025 26/21 Q1015
TAF YPCC 201057Z 2012/2112 12014KT 9999 SCT025
       
YPDN 201430Z 19003KT CAVOK 27/24 Q1012
TAF AMD YPDN 201133Z 2012/2118 01004KT 9999 SCT025 
     FM210200 34012KT CAVOK INTER 2015/2019 5000 SHRA SCT010 BKN020
       
YPEA 201430Z AUTO 35009KT 9999 // OVC015 18/16 Q1012
TAF AMD YPEA 201341Z 2014/2106 34010KT 9999 -RA SCT019 BKN025 
     FM201500 32010KT 9999 -SHRA BKN010 
     FM210000 31020KT 9999 -SHRA BKN015 INTER 2014/2105 5000 SHRA BKN010 INTER 2105/2106 VRB25G35KT 3000 SHRA BKN008
       
YPGV 201430Z AUTO 16005KT 9999 // NCD 25/23 Q1012
TAF YPGV 201216Z 2014/2102 12008KT 9999 SCT015 
     FM202300 10013KT 9999 FEW020
       
YPJT 201430Z AUTO 33015KT 9999 // OVC015 OVC029 19/16 Q1011
TAF AMD YPJT 201334Z 2013/2106 33014KT 9999 -SHRA FEW008 BKN012 
     FM210100 31022KT 9999 -SHRA SCT025 INTER 2013/2105 5000 SHRA SCT008 BKN010 INTER 2105/2106 VRB25G35KT 3000 SHRA BKN008
       
YPKG 201430Z AUTO 26006KT 9999 // NCD 17/07 Q1013
TAF YPKG 201055Z 2012/2112 26010KT CAVOK 
     FM201500 VRB03KT CAVOK 
     FM210000 34014KT CAVOK 
     FM210500 30017KT CAVOK
       
YPKU 201430Z AUTO 00000KT 9999 // NCD 23/15 Q1011 RF00.0/000.0
TAF YPKU 201242Z 2014/2102 VRB03KT CAVOK 
     FM202300 08007KT CAVOK
       
YPLM 201430Z AUTO 21007KT 9999 // NCD 19/16 Q1014
TAF YPLM 201055Z 2012/2112 21012KT CAVOK 
     FM202200 18006KT 9999 SCT008 
     FM210000 15006KT CAVOK 
     FM210500 23012KT CAVOK
       
YPMQ 201430Z AUTO 00000KT 1000 // ////// 08/07 Q1018
YPPD 201430Z AUTO 29006KT 9999 // NCD 23/22 Q1012
TAF YPPD 201055Z 2012/2112 33012KT CAVOK 
     FM201400 28008KT CAVOK 
     FM202000 VRB05KT CAVOK 
     FM210300 03007KT CAVOK 
     FM210500 31012KT CAVOK
       
YPPH 201430Z 33013KT 9999 -DZ BKN015 BKN025 19/17 Q1011 FM1430 33010KT 9999 -SHRA FEW007 BKN012 INTER 1430/1730 5000 SHRA BKN008
TAF AMD YPPH 201342Z 2013/2118 33010KT 9999 -SHRA FEW007 BKN012 
     FM210100 31022KT 9999 -SHRA FEW015 SCT025 
     FM210800 28017KT 9999 -SHRA SCT025 
     FM211200 27012KT 9999 -SHRA SCT025 INTER 2014/2105 5000 SHRA BKN008 INTER 2105/2111 VRB25G35KT 3000 SHRA BKN008 INTER 2111/2118 5000 SHRA SCT010
       
YPTN 201430Z AUTO 11005KT 9999 // NCD 25/13 Q1012
TAF YPTN 201111Z 2012/2112 08007KT CAVOK
       
YPWR 201430Z AUTO 02010KT 9999 // NCD 15/M08 Q1012
TAF YPWR 201114Z 2012/2106 02012KT CAVOK 
     FM202300 35018KT CAVOK 
     FM210400 31012KT CAVOK
       
YPXM 201449Z AUTO 12009KT 9999 // SCT014 BKN020 23/20 Q1015
TAF YPXM 201057Z 2012/2112 12012KT 9999 BKN014
       
YPBO 201400Z AUTO 26002KT 9999 // NCD 26/00 Q1015
YPEA 201430Z AUTO 35009KT 9999 // OVC015 18/16 Q1012
TAF AMD YPEA 201341Z 2014/2106 34010KT 9999 -RA SCT019 BKN025 
     FM201500 32010KT 9999 -SHRA BKN010 
     FM210000 31020KT 9999 -SHRA BKN015 INTER 2014/2105 5000 SHRA BKN010 INTER 2105/2106 VRB25G35KT 3000 SHRA BKN008
       
YPPH 201430Z 33013KT 9999 -DZ BKN015 BKN025 19/17 Q1011 FM1430 33010KT 9999 -SHRA FEW007 BKN012 INTER 1430/1730 5000 SHRA BKN008
TAF AMD YPPH 201342Z 2013/2118 33010KT 9999 -SHRA FEW007 BKN012 
     FM210100 31022KT 9999 -SHRA FEW015 SCT025 
     FM210800 28017KT 9999 -SHRA SCT025 
     FM211200 27012KT 9999 -SHRA SCT025 INTER 2014/2105 5000 SHRA BKN008 INTER 2105/2111 VRB25G35KT 3000 SHRA BKN008 INTER 2111/2118 5000 SHRA SCT010
       
YPJT 201430Z AUTO 33015KT 9999 // OVC015 OVC029 19/16 Q1011
TAF AMD YPJT 201334Z 2013/2106 33014KT 9999 -SHRA FEW008 BKN012 
     FM210100 31022KT 9999 -SHRA SCT025 INTER 2013/2105 5000 SHRA SCT008 BKN010 INTER 2105/2106 VRB25G35KT 3000 SHRA BKN008
       
YPPD 201430Z AUTO 29006KT 9999 // NCD 23/22 Q1012
TAF YPPD 201055Z 2012/2112 33012KT CAVOK 
     FM201400 28008KT CAVOK 
     FM202000 VRB05KT CAVOK 
     FM210300 03007KT CAVOK 
     FM210500 31012KT CAVOK
       
YPMQ 201430Z AUTO 00000KT 1000 // ////// 08/07 Q1018
YBPN 201400Z AUTO 21004KT 9999 // NCD 17/16 Q1017
YSRI 201430Z AUTO 00000KT 9999 // NCD 08/08 Q1018 RF00.0/000.0 PRESENT WEATHER SENSOR US
TAF YSRI 201123Z 2012/2112 VRB03KT CAVOK 
     FM210000 02012KT CAVOK 
     FM210900 VRB03KT CAVOK 
     PROB40 2014/2022 0500 FG
       
YRMD 201400Z AUTO 15005KT 130V190 9999 // NCD 20/M02 Q1013
YBRK 201430Z AUTO 00000KT 9999 // NCD 18/16 Q1016 RF00.0/000.0
TAF YBRK 201121Z 2012/2112 VRB04KT 9999 SCT020 
     FM210000 05010KT 9999 FEW040
       
YSCB 201430Z AUTO 17004KT 9999 // NCD 02/01 Q1018
TAF YSCB 201123Z 2012/2112 VRB03KT CAVOK 
     FM202300 33010KT CAVOK 
     FM211000 36005KT CAVOK 
     PROB30 2018/2021 4000 BR
       
YSDU 201430Z AUTO 13003KT 9999 // NCD 06/00 Q1018 RF00.0/000.0
TAF YSDU 201056Z 2012/2106 VRB03KT CAVOK 
     FM210000 32010KT CAVOK
       
YSNF 201430Z AUTO 31012KT 9999 // BKN020 17/14 Q1015
TAF AMD YSNF 201126Z 2012/2112 28014KT 9999 -SHRA BKN020 
     FM202000 26012KT 9999 -SHRA SCT008 BKN018 
     FM202300 21015KT 9999 -SHRA BKN018 
     BECMG 2100/2102 24014KT 9999 -SHRA SCT020 BKN030 INTER 2018/2104 4000 SHRA BKN010 
     PROB30 
     TEMPO 2018/2023 VRB25G35KT 2000 TSRA BKN010 SCT050CB
       
YSNW 201400Z AUTO 30005KT 9999 // NCD 08/08 Q1017
YSRI 201430Z AUTO 00000KT 9999 // NCD 08/08 Q1018 RF00.0/000.0 PRESENT WEATHER SENSOR US
TAF YSRI 201123Z 2012/2112 VRB03KT CAVOK 
     FM210000 02012KT CAVOK 
     FM210900 VRB03KT CAVOK 
     PROB40 2014/2022 0500 FG
       
YSSY 201400Z 30005KT CAVOK 14/10 Q1018 NOSIG
TAF YSSY 201112Z 2012/2118 29008KT 9999 FEW025 
     FM210200 04015KT CAVOK 
     FM211000 33008KT CAVOK
       
YSTW 201430Z AUTO 17001KT 9999 // NCD 03/M01 Q1018 RF00.0/000.0
TAF YSTW 201055Z 2012/2106 VRB03KT CAVOK 
     FM202300 31008KT CAVOK
       
YSWG 201400Z AUTO 10002KT 9999 // NCD 05/03 Q1018
YKRY 201400Z AUTO 13003KT 9999 // NCD 15/12 Q1019
YSSY 201400Z 30005KT CAVOK 14/10 Q1018 NOSIG
TAF YSSY 201112Z 2012/2118 29008KT 9999 FEW025 
     FM210200 04015KT CAVOK 
     FM211000 33008KT CAVOK
       
YSTW 201430Z AUTO 17001KT 9999 // NCD 03/M01 Q1018 RF00.0/000.0
TAF YSTW 201055Z 2012/2106 VRB03KT CAVOK 
     FM202300 31008KT CAVOK
       
YTRE 201430Z AUTO 00000KT 9999 // NCD 10/09 Q1018
TAF AMD YTRE 201413Z 2014/2102 VRB03KT CAVOK 
     FM210000 04008KT CAVOK 
     PROB30 2014/2021 0500 FG
       
YTEF 201400Z AUTO 33003KT 9999 // NCD 27/M01 Q1013
YTNK 201400Z AUTO 11007KT 070V130 9999 // NCD 25/M04 Q1015
TAF YTNK 201207Z 2014/2102 11005KT CAVOK 
     FM202300 05012KT CAVOK
       
YTEF 201400Z AUTO 33003KT 9999 // NCD 27/M01 Q1013
YTNK 201400Z AUTO 11007KT 070V130 9999 // NCD 25/M04 Q1015
TAF YTNK 201207Z 2014/2102 11005KT CAVOK 
     FM202300 05012KT CAVOK
       
YTRE 201430Z AUTO 00000KT 9999 // NCD 10/09 Q1018
TAF AMD YTRE 201413Z 2014/2102 VRB03KT CAVOK 
     FM210000 04008KT CAVOK 
     PROB30 2014/2021 0500 FG
       
YPTN 201430Z AUTO 11005KT 9999 // NCD 25/13 Q1012
TAF YPTN 201111Z 2012/2112 08007KT CAVOK
       
YBTL 201430Z AUTO 00000KT 9999 // NCD 20/19 Q1016
TAF YBTL 201107Z 2012/2112 06007KT 9999 SCT016 
     FM201400 VRB05KT 9999 SCT012 
     FM210000 06015KT 9999 FEW035 
     FM210800 07008KT 9999 FEW030 
     TEMPO 2012/2021 9999 NSW BKN012
       
YSWG 201400Z AUTO 10002KT 9999 // NCD 05/03 Q1018
YWGT 201430Z AUTO 22005KT 3500 // NCD 03/03 Q1017
YBWP 201400Z AUTO 11007KT 9999 // NCD 24/18 Q1012
YWHA 201400Z AUTO 35013KT 9999 // NCD 20/M08 Q1010
YWLM 201430Z AUTO 34004KT 9999 // NCD 09/07 Q1017
TAF YWLM 201122Z 2012/2112 VRB03KT CAVOK 
     FM201500 30005KT 9999 FEW003 
     FM202200 33008KT 9999 FEW020 
     FM210200 03014KT CAVOK 
     FM210900 02005KT CAVOK 
     PROB40 2015/2022 0500 FG
       
YPWR 201430Z AUTO 02010KT 9999 // NCD 15/M08 Q1012
TAF YPWR 201114Z 2012/2106 02012KT CAVOK 
     FM202300 35018KT CAVOK 
     FM210400 31012KT CAVOK